AGA weather

Al Massira Airport
Agadir, Agadir Province, Morocco

Public forecast

Using degrees Celsius for public forecast. Weather courtesy of forecast.io.

Current aviation weather report (METAR) for Al Massira Airport

Retrieved 2019/11/20 02:30 UTC (25 minutes ago):

GMAD 200230Z 09004KT CAVOK 10/08 Q1015 NOSIG

Aviation forecast (TAF) for Al Massira Airport

Retrieved 2019-11-20 00:18 UTC (3 hours ago):

TAF TAF GMAD 192300Z 2000/2106 06008KT 8000 SCT020 SCT100 BECMG 2012/2014 27012KT